Time;durP1;ratioP1;P1;durP2;ratioP2;P2;SDS_P1;SDS_P2;PMS_P1;PMS_P2;Temp;Humidity;BMP_temperature;BMP_pressure;BME280_temperature;BME280_humidity;BME280_pressure;Samples;Min_cycle;Max_cycle;Signal;HPM_P1;HPM_P2
2023/10/06 00:00:40;;;;;;;11.23;3.70;;;14.20;99.90;;;14.63;69.26;101541.06;4918870;28;20054;-87
2023/10/06 00:03:10;;;;;;;14.48;4.18;;;14.20;99.90;;;14.63;69.54;101548.28;4917422;29;20555;-87
2023/10/06 00:05:40;;;;;;;16.20;4.15;;;14.10;99.90;;;14.60;69.73;101538.00;4929498;29;20051;-87
2023/10/06 00:08:10;;;;;;;12.95;4.68;;;14.10;99.90;;;14.60;69.61;101533.44;4943415;29;20055;-87
2023/10/06 00:10:44;;;;;;;13.40;4.30;;;14.10;99.90;;;14.61;69.81;101528.88;4936975;29;20047;-87
2023/10/06 00:13:13;;;;;;;13.65;4.40;;;14.20;99.90;;;14.58;69.64;101538.19;4967567;28;20575;-87
2023/10/06 00:15:45;;;;;;;12.88;4.38;;;14.10;99.90;;;14.55;69.88;101535.94;4936145;29;20044;-87
2023/10/06 00:18:16;;;;;;;14.18;4.65;;;14.10;99.90;;;14.55;69.92;101530.56;4935423;29;20135;-87
2023/10/06 00:20:48;;;;;;;;;;;14.10;99.90;;;14.46;69.98;101541.72;4935765;29;20063;-87
2023/10/06 00:23:21;;;;;;;10.95;3.88;;;14.10;99.90;;;14.42;70.21;101530.56;4935902;29;19991;-87
2023/10/06 00:25:52;;;;;;;12.95;4.78;;;14.10;99.90;;;14.39;70.47;101529.09;4967064;28;20055;-87
2023/10/06 00:28:22;;;;;;;10.27;4.60;;;14.10;99.90;;;14.42;70.31;101542.13;4934401;29;20515;-87
2023/10/06 00:30:55;;;;;;;12.27;4.57;;;14.10;99.90;;;14.47;70.31;101540.66;4901982;29;20058;-88
2023/10/06 00:33:27;;;;;;;11.15;4.22;;;14.10;99.90;;;14.46;70.22;101537.16;4956604;28;20052;-87
2023/10/06 00:35:56;;;;;;;12.70;5.07;;;14.10;99.90;;;14.46;70.33;101539.03;4934492;28;20141;-87
2023/10/06 00:38:24;;;;;;;11.63;4.53;;;14.10;99.90;;;14.44;70.13;101531.16;4966751;28;20131;-87
2023/10/06 00:40:52;;;;;;;11.85;4.40;;;14.10;99.90;;;14.45;70.44;101542.75;4945611;29;20048;-87
2023/10/06 00:43:34;;;;;;;19.75;5.00;;;14.10;99.90;;;14.48;70.25;101536.97;4918092;29;20461;-87
2023/10/06 00:46:06;;;;;;;13.65;4.68;;;14.10;99.90;;;14.48;70.25;101535.13;4933990;29;20051;-87
2023/10/06 00:48:38;;;;;;;15.52;4.65;;;14.10;99.90;;;14.49;70.02;101535.94;4918492;29;20074;-87
2023/10/06 00:51:12;;;;;;;12.90;4.55;;;14.10;99.90;;;14.46;70.01;101525.59;4935000;28;20043;-87
2023/10/06 00:53:41;;;;;;;11.95;4.78;;;14.10;99.90;;;14.49;70.29;101525.19;4935645;29;20422;-87
2023/10/06 00:56:15;;;;;;;8.60;3.85;;;14.10;99.90;;;14.48;70.07;101526.25;4931179;29;20080;-87
2023/10/06 00:58:43;;;;;;;15.23;4.18;;;14.10;99.90;;;14.45;70.11;101519.41;4929615;29;20062;-87
2023/10/06 01:01:12;;;;;;;12.60;4.68;;;14.10;99.90;;;14.48;70.11;101520.88;4934333;29;20043;-87
2023/10/06 01:03:44;;;;;;;;;;;14.10;99.90;;;14.48;70.10;101516.31;4965424;28;20043;-87
2023/10/06 01:06:15;;;;;;;12.10;4.72;;;14.10;99.90;;;14.42;70.42;101517.97;4934598;29;19929;-87
2023/10/06 01:08:48;;;;;;;13.13;4.40;;;14.00;99.90;;;14.45;70.28;101505.19;4948357;28;20040;-87
2023/10/06 01:11:18;;;;;;;9.73;3.90;;;14.00;99.90;;;14.42;70.33;101514.47;4934036;29;20280;-87
2023/10/06 01:13:56;;;;;;;15.02;4.78;;;14.00;99.90;;;14.44;70.10;101507.00;4937743;29;20044;-87
2023/10/06 01:16:29;;;;;;;12.00;4.35;;;14.00;99.90;;;14.34;70.34;101503.94;4937107;29;20119;-87
2023/10/06 01:19:06;;;;;;;11.57;4.47;;;14.00;99.90;;;14.29;70.37;101491.16;4953430;29;20055;-87
2023/10/06 01:21:39;;;;;;;12.63;4.88;;;14.00;99.90;;;14.30;70.68;101492.81;4907446;29;20079;-87
2023/10/06 01:24:13;;;;;;;12.10;4.32;;;13.90;99.90;;;14.32;70.54;101490.75;4969551;28;20051;-87
2023/10/06 01:26:43;;;;;;;13.80;4.47;;;14.00;99.90;;;14.34;70.55;101485.16;4937162;29;20051;-88
2023/10/06 01:29:13;;;;;;;17.20;5.63;;;14.00;99.90;;;14.26;70.71;101483.53;4949682;29;20039;-87
2023/10/06 01:31:42;;;;;;;11.27;4.07;;;13.90;99.90;;;14.26;70.87;101478.19;4934731;29;20157;-86
2023/10/06 01:34:11;;;;;;;12.35;4.50;;;13.90;99.90;;;14.32;70.59;101476.50;4920910;29;20088;-87
2023/10/06 01:36:39;;;;;;;11.52;4.10;;;14.00;99.90;;;14.36;70.45;101483.09;4927801;29;20050;-88
2023/10/06 01:39:16;;;;;;;17.40;4.78;;;14.00;99.90;;;14.37;70.20;101488.25;4922089;29;20044;-87
2023/10/06 01:41:46;;;;;;;16.88;5.03;;;14.00;99.90;;;14.38;70.28;101492.56;4935566;29;20044;-87
2023/10/06 01:44:15;;;;;;;15.75;4.50;;;14.00;99.90;;;14.39;70.25;101483.47;4920761;29;20051;-87
2023/10/06 01:46:44;;;;;;;11.60;4.20;;;14.00;99.90;;;14.40;70.09;101484.34;4938561;29;20119;-87
2023/10/06 01:49:14;;;;;;;10.02;4.03;;;14.00;99.90;;;14.41;69.96;101485.97;4921844;29;20050;-87
2023/10/06 01:51:42;;;;;;;13.18;4.15;;;14.00;99.90;;;14.40;70.03;101479.78;4922384;29;20051;-87
2023/10/06 01:54:13;;;;;;;11.63;4.00;;;14.00;99.90;;;14.42;69.95;101476.88;4970001;28;20134;-87
2023/10/06 01:56:42;;;;;;;14.13;4.22;;;13.90;99.90;;;14.42;70.03;101472.34;4952513;29;20051;-87
2023/10/06 01:59:10;;;;;;;12.13;4.60;;;13.90;99.90;;;14.38;69.98;101478.34;4940751;29;20133;-87
2023/10/06 02:01:40;;;;;;;12.15;4.70;;;13.90;99.90;;;14.35;69.91;101471.53;4946148;29;20508;-87
2023/10/06 02:04:10;;;;;;;13.93;4.90;;;13.90;99.90;;;14.35;70.18;101471.53;4905914;29;20040;-87
2023/10/06 02:06:41;;;;;;;12.10;4.45;;;13.90;99.90;;;14.36;70.09;101467.00;4937065;29;20044;-87
2023/10/06 02:09:15;;;;;;;13.40;4.33;;;13.90;99.90;;;14.33;69.98;101462.88;4922404;29;20103;-87
2023/10/06 02:11:44;;;;;;;11.20;4.35;;;13.90;99.90;;;14.34;70.01;101464.50;4936520;29;20087;-87
2023/10/06 02:14:14;;;;;;;11.48;4.43;;;13.90;99.90;;;14.36;70.03;101456.25;4937600;29;20056;-87
2023/10/06 02:16:44;;;;;;;11.68;4.40;;;13.90;99.90;;;14.30;69.80;101452.56;4937164;28;20042;-87
2023/10/06 02:19:16;;;;;;;11.35;4.50;;;13.90;99.90;;;14.28;69.86;101454.63;4927686;29;20499;-88
2023/10/06 02:21:44;;;;;;;9.93;4.97;;;13.80;99.90;;;14.25;69.95;101454.22;4949832;28;20130;-87
2023/10/06 02:24:16;;;;;;;11.20;4.93;;;13.80;99.90;;;14.23;69.89;101457.13;4920927;29;20062;-87
2023/10/06 02:26:48;;;;;;;14.27;4.80;;;13.80;99.90;;;14.20;70.05;101462.94;4968648;28;20043;-87
2023/10/06 02:29:22;;;;;;;11.30;4.63;;;13.80;99.90;;;14.18;70.02;101456.94;4936495;29;20044;-87
2023/10/06 02:31:49;;;;;;;11.32;4.60;;;13.80;99.90;;;14.22;70.06;101462.72;4936043;29;20047;-87
2023/10/06 02:34:28;;;;;;;11.52;4.85;;;13.80;99.90;;;14.22;70.00;101460.84;4940055;29;20519;-87
2023/10/06 02:36:56;;;;;;;13.68;4.47;;;13.80;99.90;;;14.10;69.91;101462.50;4922388;29;20059;-87
2023/10/06 02:39:33;;;;;;;12.38;4.68;;;13.80;99.90;;;14.13;70.17;101451.38;4942022;29;20086;-87
2023/10/06 02:42:08;;;;;;;12.50;4.97;;;13.80;99.90;;;13.96;70.27;101458.19;4946472;28;20066;-87
2023/10/06 02:44:39;;;;;;;12.93;4.35;;;13.70;99.90;;;13.99;70.82;101460.47;4949963;29;20130;-87
2023/10/06 02:47:09;;;;;;;11.43;3.92;;;13.70;99.90;;;14.05;70.58;101467.69;4933620;29;20046;-87
2023/10/06 02:49:38;;;;;;;13.25;4.38;;;13.70;99.90;;;14.10;70.29;101459.81;4956120;28;20499;-87
2023/10/06 02:52:13;;;;;;;13.15;4.40;;;13.70;99.90;;;14.11;70.14;101456.13;4925314;29;20095;-86
2023/10/06 02:54:47;;;;;;;12.23;4.25;;;13.70;99.90;;;14.13;70.10;101457.56;4918494;29;20044;-86
2023/10/06 02:57:20;;;;;;;9.35;4.00;;;13.70;99.90;;;14.12;69.88;101458.59;4923983;29;20048;-87
2023/10/06 02:59:48;;;;;;;12.77;4.60;;;13.80;99.90;;;14.12;69.83;101455.09;4936181;29;20044;-87
2023/10/06 03:02:17;;;;;;;13.40;4.50;;;13.70;99.90;;;14.10;69.64;101454.47;4936198;29;20067;-87
2023/10/06 03:04:46;;;;;;;9.63;4.57;;;13.70;99.90;;;14.10;70.05;101449.94;4936242;29;20525;-87
2023/10/06 03:07:18;;;;;;;9.48;3.60;;;13.80;99.90;;;14.13;69.94;101456.75;4916204;29;20036;-87
2023/10/06 03:09:49;;;;;;;12.55;4.35;;;13.70;99.90;;;14.15;69.65;101451.97;4913724;29;20052;-87
2023/10/06 03:12:26;;;;;;;10.48;3.80;;;13.70;99.90;;;14.14;69.60;101455.69;4934745;29;20044;-87
2023/10/06 03:14:56;;;;;;;10.25;3.80;;;13.70;99.90;;;14.07;69.92;101449.53;4935243;29;20051;-87
2023/10/06 03:17:25;;;;;;;10.68;4.05;;;13.70;99.90;;;14.00;70.01;101446.84;4935665;29;20054;-87
2023/10/06 03:20:08;;;;;;;11.77;4.68;;;13.60;99.90;;;13.90;70.42;101447.28;4951270;28;20075;-87
2023/10/06 03:22:38;;;;;;;9.57;3.47;;;13.60;99.90;;;13.91;70.55;101448.13;4928216;29;20086;-87
2023/10/06 03:25:15;;;;;;;12.13;4.47;;;13.60;99.90;;;13.93;70.43;101450.59;4925062;29;20076;-87
2023/10/06 03:27:45;;;;;;;8.77;4.32;;;13.60;99.90;;;13.89;70.36;101451.00;4954545;29;20047;-87
2023/10/06 03:30:19;;;;;;;12.15;4.45;;;13.60;99.90;;;13.87;70.64;101452.25;4960846;28;20055;-87
2023/10/06 03:32:49;;;;;;;11.73;3.72;;;13.60;99.90;;;13.88;70.49;101462.75;4935330;29;20048;-87
2023/10/06 03:35:23;;;;;;;10.63;4.40;;;13.60;99.90;;;13.95;70.44;101460.06;4936012;29;20486;-87
2023/10/06 03:38:07;;;;;;;13.43;4.20;;;13.60;99.90;;;13.97;70.24;101462.56;4928132;29;20051;-87
2023/10/06 03:40:44;;;;;;;12.50;4.18;;;13.60;99.90;;;13.97;69.90;101460.69;4948143;29;20118;-87
2023/10/06 03:43:13;;;;;;;9.45;3.72;;;13.60;99.90;;;13.99;69.80;101465.84;4887854;29;20494;-87
2023/10/06 03:45:42;;;;;;;10.35;3.92;;;13.60;99.90;;;13.96;70.12;101464.41;4949899;28;20095;-88
2023/10/06 03:48:11;;;;;;;12.07;4.75;;;13.60;99.90;;;13.97;69.91;101457.19;4935514;29;20043;-87
2023/10/06 03:50:41;;;;;;;10.07;3.80;;;13.60;99.90;;;13.98;69.61;101458.84;4920263;29;20051;-87
2023/10/06 03:53:11;;;;;;;16.98;4.53;;;13.60;99.90;;;13.90;70.20;101458.00;4936230;29;20039;-87
2023/10/06 03:55:44;;;;;;;11.90;4.15;;;13.50;99.90;;;13.93;70.02;101467.50;4935830;29;20048;-87
2023/10/06 03:58:15;;;;;;;12.57;3.72;;;13.60;99.90;;;13.93;70.07;101472.06;4946598;29;20044;-86
2023/10/06 04:00:47;;;;;;;10.18;3.88;;;13.60;99.90;;;13.96;70.05;101468.94;4930086;29;20044;-87
2023/10/06 04:03:17;;;;;;;11.90;4.00;;;13.60;99.90;;;13.91;69.98;101458.84;4934657;29;20094;-87
2023/10/06 04:05:45;;;;;;;10.07;4.03;;;13.50;99.90;;;13.93;70.11;101456.78;4934697;29;20461;-87
2023/10/06 04:08:15;;;;;;;8.23;3.70;;;13.50;99.90;;;13.95;70.02;101456.56;4951422;28;20581;-87
2023/10/06 04:10:45;;;;;;;11.63;3.65;;;13.60;99.90;;;13.95;69.81;101453.88;4935402;29;20048;-87
2023/10/06 04:13:14;;;;;;;12.40;4.00;;;13.50;99.90;;;13.97;69.83;101457.19;4934914;29;20051;-87
2023/10/06 04:15:46;;;;;;;10.40;3.95;;;13.50;99.90;;;13.92;69.75;101449.78;4930785;29;20044;-87
2023/10/06 04:18:16;;;;;;;11.32;4.15;;;13.50;99.90;;;13.94;69.67;101446.88;4931588;29;20047;-87
2023/10/06 04:20:45;;;;;;;11.18;4.00;;;13.50;99.90;;;13.85;69.80;101438.22;4918650;29;20555;-87
2023/10/06 04:23:16;;;;;;;12.02;4.00;;;13.50;99.90;;;13.88;70.09;101433.28;4932280;29;20048;-87
2023/10/06 04:25:46;;;;;;;;;;;13.50;99.90;;;13.89;69.96;101429.53;4958664;28;20511;-87
2023/10/06 04:28:19;;;;;;;9.50;3.63;;;13.50;99.90;;;13.90;69.83;101420.47;4935125;29;19930;-87
2023/10/06 04:30:47;;;;;;;8.25;3.58;;;13.50;99.90;;;13.85;70.14;101427.50;4936259;29;20068;-87
2023/10/06 04:33:18;;;;;;;9.02;3.83;;;13.50;99.90;;;13.86;70.05;101429.16;4934188;29;20431;-86
2023/10/06 04:35:52;;;;;;;9.35;3.85;;;13.50;99.90;;;13.82;69.81;101423.38;4934082;29;20503;-86
2023/10/06 04:38:29;;;;;;;11.02;4.43;;;13.50;99.90;;;13.76;69.94;101415.34;4966195;28;20103;-87
2023/10/06 04:40:59;;;;;;;10.00;3.78;;;13.40;99.90;;;13.69;70.26;101417.22;4923815;29;20095;-87
2023/10/06 04:43:27;;;;;;;12.30;3.88;;;13.40;99.90;;;13.74;70.00;101423.59;4932432;29;20063;-87
2023/10/06 04:45:55;;;;;;;9.40;3.97;;;13.40;99.90;;;13.75;70.05;101419.88;4951998;28;20039;-87
2023/10/06 04:48:22;;;;;;;9.77;3.97;;;13.40;99.90;;;13.72;70.09;101417.63;4938091;28;20054;-87
2023/10/06 04:50:51;;;;;;;13.55;4.30;;;13.40;99.90;;;13.73;70.25;101410.41;4905536;29;20048;-87
2023/10/06 04:53:20;;;;;;;14.32;4.13;;;13.40;99.90;;;13.73;70.10;101405.88;4936218;28;20052;-86
2023/10/06 04:55:47;;;;;;;18.67;4.90;;;13.40;99.90;;;13.66;70.42;101402.34;4937407;29;20063;-87
2023/10/06 04:58:18;;;;;;;14.27;4.63;;;13.40;99.90;;;13.61;70.55;101407.53;4922775;29;20054;-86
2023/10/06 05:00:52;;;;;;;9.18;3.17;;;13.30;99.90;;;13.64;70.48;101402.56;4938657;29;20481;-87
2023/10/06 05:03:20;;;;;;;8.77;3.70;;;13.30;99.90;;;13.58;70.33;101402.59;4939171;29;20249;-86
2023/10/06 05:05:50;;;;;;;10.40;3.85;;;13.30;99.90;;;13.60;70.56;101405.88;4970262;28;20035;-87
2023/10/06 05:08:17;;;;;;;10.18;3.65;;;13.30;99.90;;;13.61;70.28;101407.53;4954020;29;20048;-87
2023/10/06 05:10:46;;;;;;;10.85;3.97;;;13.30;99.90;;;13.60;70.68;101403.19;4938481;29;20566;-86
2023/10/06 05:13:14;;;;;;;11.65;4.18;;;13.30;99.90;;;13.60;70.60;101398.66;4970441;28;20040;-87
2023/10/06 05:15:43;;;;;;;8.55;3.67;;;13.30;99.90;;;13.58;70.59;101397.22;4922602;29;20047;-86
2023/10/06 05:18:15;;;;;;;11.93;3.97;;;13.30;99.90;;;13.60;70.28;101398.66;4970558;28;20043;-86
2023/10/06 05:20:43;;;;;;;11.93;4.05;;;13.30;99.90;;;13.57;70.63;101384.88;4938352;28;20048;-87
2023/10/06 05:23:14;;;;;;;10.25;3.80;;;13.30;99.90;;;13.59;70.39;101391.66;4954622;28;20044;-86
2023/10/06 05:25:43;;;;;;;;;;;13.30;99.90;;;13.52;70.71;101385.50;4939925;29;20070;-86
2023/10/06 05:28:12;;;;;;;10.40;4.43;;;13.30;99.90;;;13.49;70.96;101385.06;4940916;29;19923;-87
2023/10/06 05:30:42;;;;;;;15.68;4.63;;;13.20;99.90;;;13.52;70.44;101390.03;4958491;29;20419;-87
2023/10/06 05:33:09;;;;;;;10.38;3.95;;;13.20;99.90;;;13.44;70.93;101388.38;4941164;29;20067;-87
2023/10/06 05:35:39;;;;;;;12.25;4.10;;;13.20;99.90;;;13.56;70.61;101393.91;4937369;29;20087;-87
2023/10/06 05:38:08;;;;;;;12.18;4.22;;;13.30;99.90;;;13.59;70.61;101390.84;4953774;28;20511;-87
2023/10/06 05:40:36;;;;;;;13.18;4.55;;;13.30;99.90;;;13.55;70.33;101390.41;4938449;29;20039;-87
2023/10/06 05:43:05;;;;;;;12.13;4.05;;;13.30;99.90;;;13.54;70.49;101388.78;4938146;29;20043;-88
2023/10/06 05:45:33;;;;;;;10.55;4.10;;;13.30;99.90;;;13.59;70.42;101396.19;4937524;29;20105;-89
2023/10/06 05:48:06;;;;;;;8.38;3.70;;;13.30;99.90;;;13.59;70.30;101405.06;4937462;29;20079;-89
2023/10/06 05:50:35;;;;;;;11.77;3.97;;;13.30;99.90;;;13.58;70.25;101397.22;4953796;28;20075;-89
2023/10/06 05:53:12;;;;;;;10.70;4.10;;;13.30;99.90;;;13.51;70.47;101402.59;4947960;29;20143;-90
2023/10/06 05:55:41;;;;;;;14.30;4.25;;;13.30;99.90;;;13.48;70.46;101405.69;4919408;29;20071;-90
2023/10/06 05:58:14;;;;;;;7.13;3.40;;;13.30;99.90;;;13.56;70.60;101407.31;4952206;28;20134;-89
2023/10/06 06:00:50;;;;;;;10.05;3.90;;;13.30;99.90;;;13.55;70.13;101397.63;4938830;29;20048;-89
2023/10/06 06:03:21;;;;;;;12.35;3.70;;;13.30;99.90;;;13.56;70.30;101397.41;4955320;28;20131;-90
2023/10/06 06:05:49;;;;;;;9.95;4.35;;;13.30;99.90;;;13.61;70.63;101404.84;4937129;29;20071;-90
2023/10/06 06:08:17;;;;;;;13.68;3.88;;;13.40;99.90;;;13.64;70.46;101399.91;4926960;29;20063;-90
2023/10/06 06:10:45;;;;;;;9.15;4.20;;;13.40;99.90;;;13.68;70.28;101404.84;4919840;29;20080;-90
2023/10/06 06:13:14;;;;;;;15.10;4.93;;;13.50;99.90;;;13.70;70.34;101417.00;4962056;28;20040;-90
2023/10/06 06:15:42;;;;;;;9.82;3.92;;;13.40;99.90;;;13.69;70.44;101401.94;4948913;29;20510;-89
2023/10/06 06:18:10;;;;;;;9.18;3.47;;;13.40;99.90;;;13.64;70.67;101412.47;4935402;28;20048;-88
2023/10/06 06:20:41;;;;;;;10.75;3.45;;;13.40;99.90;;;13.70;70.51;101414.31;4968261;28;20040;-89
2023/10/06 06:23:12;;;;;;;12.00;3.72;;;13.50;99.90;;;13.75;70.38;101425.25;4936947;29;20118;-90
2023/10/06 06:25:40;;;;;;;10.48;4.07;;;13.50;99.90;;;13.70;70.51;101426.91;4932486;28;20058;-88
2023/10/06 06:28:08;;;;;;;12.68;3.90;;;13.50;99.90;;;13.69;70.53;101431.44;4938363;28;20047;-89
2023/10/06 06:30:39;;;;;;;8.40;3.80;;;13.50;99.90;;;13.75;70.61;101429.78;4934322;29;20051;-85
2023/10/06 06:33:12;;;;;;;10.75;4.13;;;13.50;99.90;;;13.79;70.37;101437.19;4937237;29;20044;-85
2023/10/06 06:35:42;;;;;;;9.30;3.55;;;13.60;99.90;;;13.83;70.26;101438.44;4920489;29;20104;-85
2023/10/06 06:38:12;;;;;;;10.32;3.42;;;13.60;99.90;;;13.75;70.56;101448.53;4952442;29;20423;-85
2023/10/06 06:40:40;;;;;;;10.80;4.00;;;13.60;99.90;;;13.82;70.49;101447.53;4936490;29;20047;-85
2023/10/06 06:43:09;;;;;;;11.93;3.80;;;13.60;99.90;;;13.77;70.26;101438.47;4933096;29;20055;-85
2023/10/06 06:45:39;;;;;;;12.70;4.13;;;13.70;99.90;;;13.78;70.98;101448.97;4934635;29;20463;-85
2023/10/06 06:48:12;;;;;;;11.97;4.07;;;13.70;99.90;;;13.70;70.46;101446.50;4935358;29;20047;-86
2023/10/06 06:50:43;;;;;;;11.55;4.00;;;13.70;99.90;;;13.72;71.17;101438.25;4936261;29;20231;-85
2023/10/06 06:53:12;;;;;;;10.35;4.07;;;13.70;99.90;;;13.76;70.98;101440.31;4935302;29;20063;-86
2023/10/06 06:55:40;;;;;;;11.75;3.72;;;13.80;99.90;;;13.80;71.23;101440.69;4936198;29;20396;-86
2023/10/06 06:58:10;;;;;;;9.43;3.58;;;13.80;99.90;;;13.86;71.29;101446.06;4935631;29;20431;-86
2023/10/06 07:00:40;;;;;;;14.23;4.10;;;13.90;99.90;;;13.96;70.93;101442.97;4934744;28;20044;-87
2023/10/06 07:03:10;;;;;;;12.77;4.38;;;13.90;99.90;;;13.89;70.79;101445.63;4938262;29;20051;-86
2023/10/06 07:05:39;;;;;;;11.77;3.75;;;14.00;99.90;;;13.94;71.17;101441.50;4935196;29;20047;-87
2023/10/06 07:08:08;;;;;;;10.57;3.78;;;14.00;99.90;;;14.02;71.15;101444.81;4936727;29;20070;-85
2023/10/06 07:10:46;;;;;;;14.88;4.00;;;14.00;99.90;;;14.08;71.34;101443.13;4950910;28;21392;-86
2023/10/06 07:13:14;;;;;;;11.40;3.83;;;14.10;99.90;;;14.17;71.12;101442.69;4936522;29;20056;-86
2023/10/06 07:15:41;;;;;;;12.35;3.97;;;14.20;99.90;;;14.18;71.40;101430.91;4933052;29;20134;-86
2023/10/06 07:18:10;;;;;;;9.90;3.45;;;14.20;99.90;;;14.17;70.48;101431.97;4915105;29;20523;-86
2023/10/06 07:20:37;;;;;;;15.40;3.72;;;14.20;99.90;;;14.17;70.29;101437.31;4954563;28;20053;-86
2023/10/06 07:23:09;;;;;;;9.85;3.88;;;14.20;99.90;;;14.24;70.63;101431.94;4937983;29;20052;-86
2023/10/06 07:25:37;;;;;;;;;;;14.30;99.90;;;14.29;70.16;101434.81;4935713;29;20043;-86
2023/10/06 07:28:07;;;;;;;14.63;4.00;;;14.20;99.90;;;14.25;69.78;101427.38;4939443;29;19923;-86
2023/10/06 07:30:35;;;;;;;12.10;3.90;;;14.30;99.90;;;14.30;70.27;101422.19;4931758;29;20472;-86
2023/10/06 07:33:05;;;;;;;9.27;3.70;;;14.30;99.90;;;14.33;70.33;101414.56;4942640;29;20072;-86
2023/10/06 07:35:40;;;;;;;12.15;4.40;;;14.30;99.90;;;14.36;69.96;101421.38;4930461;29;20055;-86
2023/10/06 07:38:10;;;;;;;7.90;3.58;;;14.40;99.90;;;14.30;70.08;101422.19;4933261;29;20050;-86
2023/10/06 07:40:42;;;;;;;11.30;3.65;;;14.40;99.90;;;14.29;69.87;101426.75;4936606;29;20052;-86
2023/10/06 07:43:12;;;;;;;9.75;3.63;;;14.40;99.90;;;14.30;69.77;101431.09;4950537;28;20047;-86
2023/10/06 07:45:41;;;;;;;13.10;4.00;;;14.40;99.90;;;14.41;70.43;101421.56;4932745;28;20512;-86
2023/10/06 07:48:10;;;;;;;10.70;3.78;;;14.50;99.90;;;14.41;70.42;101413.50;4934593;29;20048;-86
2023/10/06 07:50:37;;;;;;;14.75;4.53;;;14.60;99.90;;;14.53;70.61;101413.69;4915927;29;20501;-86
2023/10/06 07:53:06;;;;;;;9.30;4.10;;;14.70;99.90;;;14.59;70.06;101418.19;4932503;29;20071;-86
2023/10/06 07:55:36;;;;;;;10.18;3.90;;;14.70;99.90;;;14.56;70.03;101415.94;4935168;29;20060;-86
2023/10/06 07:58:08;;;;;;;10.88;3.85;;;14.70;99.90;;;14.63;69.88;101414.03;4937017;28;20075;-86
2023/10/06 08:00:38;;;;;;;11.45;3.60;;;14.80;99.90;;;14.61;68.90;101416.13;4936265;29;20055;-86
2023/10/06 08:03:06;;;;;;;11.40;4.13;;;14.80;99.90;;;14.61;69.10;101416.13;4936732;29;20079;-86
2023/10/06 08:05:33;;;;;;;10.70;3.95;;;14.70;99.90;;;14.62;69.20;101420.44;4938609;28;20040;-86
2023/10/06 08:08:04;;;;;;;11.70;3.78;;;14.70;99.90;;;14.65;69.59;101420.03;4932730;29;20055;-86
2023/10/06 08:10:31;;;;;;;16.88;4.05;;;14.70;99.90;;;14.61;68.87;101424.19;4935000;29;20048;-86
2023/10/06 08:13:01;;;;;;;11.02;3.95;;;14.70;99.90;;;14.57;69.24;101428.31;4946365;28;20091;-86
2023/10/06 08:15:31;;;;;;;11.05;3.83;;;14.70;99.90;;;14.57;69.71;101437.19;4916568;29;20491;-85
2023/10/06 08:17:58;;;;;;;17.38;4.20;;;14.70;99.90;;;14.61;69.87;101418.81;4930299;29;20042;-86
2023/10/06 08:20:27;;;;;;;11.32;3.60;;;14.70;99.90;;;14.68;69.72;101425.78;4917510;29;20423;-86
2023/10/06 08:22:56;;;;;;;16.60;4.43;;;14.80;99.90;;;14.67;68.57;101423.31;4932467;29;20118;-86
2023/10/06 08:25:24;;;;;;;9.90;3.47;;;14.80;99.90;;;14.71;69.26;101431.78;4924801;29;20134;-86
2023/10/06 08:27:52;;;;;;;9.68;3.83;;;14.90;99.90;;;14.78;69.40;101425.31;4934182;29;20062;-86
2023/10/06 08:30:21;;;;;;;10.82;4.10;;;15.00;99.90;;;14.89;69.20;101435.38;4935362;29;20086;-86
2023/10/06 08:32:52;;;;;;;11.30;4.18;;;15.00;99.90;;;14.93;69.06;101441.13;4949788;28;20047;-86
2023/10/06 08:35:20;;;;;;;14.27;4.18;;;15.10;99.90;;;15.03;69.60;101448.72;4936465;28;20047;-86
2023/10/06 08:37:49;;;;;;;10.38;4.22;;;15.20;99.90;;;15.13;69.06;101449.09;4949818;28;20074;-85
2023/10/06 08:40:19;;;;;;;16.35;4.53;;;15.30;99.90;;;15.17;68.83;101456.47;4940885;28;20043;-85
2023/10/06 08:42:49;;;;;;;10.70;4.15;;;15.40;99.90;;;15.22;69.14;101447.75;4935402;29;20054;-85
2023/10/06 08:45:21;;;;;;;12.95;4.60;;;15.40;99.90;;;15.26;68.14;101438.22;4937002;29;20083;-85
2023/10/06 08:47:50;;;;;;;9.30;3.38;;;15.50;99.90;;;15.32;68.49;101441.91;4952088;28;20047;-86
2023/10/06 08:50:22;;;;;;;10.93;3.38;;;15.60;99.90;;;15.37;68.90;101437.53;4935375;28;20036;-86
2023/10/06 08:52:52;;;;;;;11.60;4.07;;;15.60;99.90;;;15.40;68.19;101429.03;4966364;28;20043;-87
2023/10/06 08:55:20;;;;;;;10.75;3.60;;;15.70;99.90;;;15.44;67.53;101432.09;4935295;29;20500;-87
2023/10/06 08:57:49;;;;;;;12.73;4.15;;;15.70;99.90;;;15.50;67.10;101428.53;4935754;28;20047;-87
2023/10/06 09:00:22;;;;;;;14.95;4.00;;;15.70;99.90;;;15.55;68.07;101435.94;4936065;28;20047;-87
2023/10/06 09:02:51;;;;;;;16.00;4.40;;;15.80;99.90;;;15.61;68.52;101438.56;4933746;29;20127;-87
2023/10/06 09:05:20;;;;;;;10.27;4.07;;;15.90;99.90;;;15.69;68.68;101432.94;4964307;28;20050;-87
2023/10/06 09:08:10;;;;;;;10.88;3.75;;;15.90;99.90;;;15.80;67.40;101426.00;4934385;29;20134;-87
2023/10/06 09:10:41;;;;;;;14.05;3.90;;;16.00;99.90;;;15.87;68.35;101426.78;4927745;29;20048;-86
2023/10/06 09:13:11;;;;;;;;;;;16.10;99.90;;;15.94;67.89;101427.50;4967771;28;20130;-86
2023/10/06 09:15:43;;;;;;;14.32;3.92;;;16.20;99.90;;;15.98;67.64;101424.38;4936382;29;19930;-86
2023/10/06 09:18:19;;;;;;;15.75;4.20;;;16.20;99.90;;;16.02;67.72;101429.09;4935186;28;20511;-85
2023/10/06 09:20:49;;;;;;;11.02;3.90;;;16.30;99.90;;;16.06;67.25;101424.09;4950865;28;20150;-86
2023/10/06 09:23:31;;;;;;;9.68;3.92;;;16.30;99.90;;;16.10;66.99;101425.28;4935095;29;20052;-86
2023/10/06 09:26:00;;;;;;;11.68;3.67;;;16.40;99.90;;;16.16;67.13;101432.47;4918565;29;20134;-85
2023/10/06 09:28:28;;;;;;;13.13;4.40;;;16.30;99.90;;;16.19;67.44;101434.69;4916793;29;20512;-88
2023/10/06 09:31:01;;;;;;;13.07;4.07;;;16.40;99.90;;;16.21;66.72;101432.63;4948220;29;20160;-87
2023/10/06 09:33:42;;;;;;;13.10;4.13;;;16.50;99.90;;;16.26;67.07;101430.06;4938991;29;20492;-88
2023/10/06 09:36:16;;;;;;;10.38;3.97;;;16.50;99.90;;;16.33;66.67;101430.81;4937760;29;20054;-87
2023/10/06 09:38:45;;;;;;;14.32;4.28;;;16.60;99.90;;;16.36;66.57;101418.78;4936473;29;20050;-87
2023/10/06 09:41:13;;;;;;;8.38;3.65;;;16.60;99.90;;;16.33;65.41;101422.72;4936614;29;20111;-87
2023/10/06 09:43:41;;;;;;;11.02;3.75;;;16.60;99.90;;;16.36;67.17;101419.59;4935364;29;20146;-87
2023/10/06 09:46:13;;;;;;;14.13;4.35;;;16.60;99.90;;;16.40;65.76;101414.59;4969265;28;20058;-88
2023/10/06 09:48:44;;;;;;;13.98;4.75;;;16.60;99.90;;;16.45;65.75;101414.72;4937351;29;20426;-87
2023/10/06 09:51:14;;;;;;;8.93;3.70;;;16.70;99.90;;;16.51;66.48;101407.59;4938533;29;20471;-88
2023/10/06 09:53:47;;;;;;;11.48;3.90;;;16.80;99.90;;;16.59;65.55;101399.19;4937214;29;20047;-87
2023/10/06 09:56:17;;;;;;;9.50;4.22;;;16.80;99.90;;;16.57;65.38;101410.19;4938456;29;20225;-87
2023/10/06 09:58:51;;;;;;;13.05;4.15;;;16.80;99.90;;;16.58;65.40;101401.06;4936911;29;20056;-87
2023/10/06 10:01:25;;;;;;;11.55;3.50;;;16.90;99.90;;;16.62;65.27;101407.63;4938766;29;20118;-87
2023/10/06 10:03:54;;;;;;;10.60;3.60;;;16.90;99.90;;;16.67;65.92;101393.50;4937167;29;20054;-88
2023/10/06 10:06:22;;;;;;;17.35;3.92;;;16.90;99.90;;;16.76;66.12;101394.03;4938317;29;20051;-87
2023/10/06 10:08:51;;;;;;;12.02;3.60;;;17.00;99.90;;;16.82;65.86;101391.22;4952479;29;20408;-87
2023/10/06 10:11:28;;;;;;;10.10;3.55;;;17.10;99.90;;;16.86;65.73;101387.03;4936861;29;20052;-87
2023/10/06 10:14:26;;;;;;;12.15;4.15;;;17.10;99.90;;;16.91;65.76;101383.63;4937099;29;20054;-87
2023/10/06 10:17:13;;;;;;;14.57;4.00;;;17.20;99.90;;;16.97;66.29;101385.41;4937523;29;20055;-87
2023/10/06 10:19:44;;;;;;;12.30;3.72;;;17.20;99.90;;;16.96;65.30;101387.28;4938403;29;20103;-87
2023/10/06 10:22:13;;;;;;;10.45;3.58;;;17.30;99.90;;;16.98;64.89;101376.25;4937060;28;20048;-88